Time;durP1;ratioP1;P1;durP2;ratioP2;P2;SDS_P1;SDS_P2;PMS_P1;PMS_P2;Temp;Humidity;BMP_temperature;BMP_pressure;BME280_temperature;BME280_humidity;BME280_pressure;Samples;Min_cycle;Max_cycle;Signal;HPM_P1;HPM_P2
2023/02/26 00:00:26;;;;;;;6.60;2.80;;;3.60;1.00;;;;;;5036488;28;20409;-42
2023/02/26 00:02:52;;;;;;;6.70;3.53;;;3.50;1.00;;;;;;5034227;28;20885;-41
2023/02/26 00:05:18;;;;;;;7.40;4.30;;;3.50;1.00;;;;;;5035083;28;20590;-49
2023/02/26 00:07:43;;;;;;;7.40;4.10;;;3.50;1.00;;;;;;5035522;28;20580;-41
2023/02/26 00:10:12;;;;;;;6.23;4.47;;;3.40;1.00;;;;;;5034109;28;20401;-43
2023/02/26 00:12:37;;;;;;;6.93;3.90;;;3.40;1.00;;;;;;5034918;28;20175;-43
2023/02/26 00:15:04;;;;;;;7.63;4.67;;;3.40;1.00;;;;;;5034143;28;20559;-42
2023/02/26 00:17:39;;;;;;;7.70;4.43;;;3.30;1.00;;;;;;5033702;28;20432;-41
2023/02/26 00:20:06;;;;;;;12.13;6.10;;;3.30;1.00;;;;;;5035099;28;20622;-42
2023/02/26 00:22:32;;;;;;;11.37;5.67;;;3.20;1.00;;;;;;5035573;28;20417;-42
2023/02/26 00:24:58;;;;;;;6.73;4.47;;;3.20;1.00;;;;;;5035510;28;20444;-42
2023/02/26 00:27:23;;;;;;;8.47;4.70;;;3.20;1.00;;;;;;5036233;28;20491;-41
2023/02/26 00:29:49;;;;;;;7.80;4.70;;;3.10;1.00;;;;;;5035908;28;20223;-42
2023/02/26 00:32:18;;;;;;;8.07;4.43;;;3.10;1.00;;;;;;5035167;28;20544;-41
2023/02/26 00:34:45;;;;;;;7.60;4.53;;;3.00;1.00;;;;;;5034875;28;20463;-43
2023/02/26 00:37:43;;;;;;;13.13;6.93;;;2.90;1.00;;;;;;5035444;28;20835;-43
2023/02/26 00:40:11;;;;;;;10.80;6.50;;;2.90;1.00;;;;;;5034980;28;20409;-41
2023/02/26 00:42:37;;;;;;;8.13;4.60;;;2.90;1.00;;;;;;5036589;28;20554;-41
2023/02/26 00:45:04;;;;;;;6.83;4.27;;;2.80;1.00;;;;;;5037419;28;20743;-41
2023/02/26 00:47:44;;;;;;;5.80;4.03;;;2.80;1.00;;;;;;5036820;28;20818;-41
2023/02/26 00:50:15;;;;;;;5.40;3.87;;;2.70;1.00;;;;;;5034551;28;20417;-41
2023/02/26 00:53:00;;;;;;;4.57;3.00;;;2.70;1.00;;;;;;5034837;28;20553;-40
2023/02/26 00:55:26;;;;;;;3.67;2.70;;;2.70;1.00;;;;;;5035836;28;20456;-43
2023/02/26 00:57:52;;;;;;;5.20;3.10;;;2.60;1.00;;;;;;5036690;28;20858;-41
2023/02/26 01:00:18;;;;;;;4.03;2.50;;;2.60;1.00;;;;;;5038339;28;20240;-42
2023/02/26 01:02:44;;;;;;;4.50;2.37;;;2.60;1.00;;;;;;5039328;28;20178;-43
2023/02/26 01:05:10;;;;;;;2.70;2.20;;;2.50;1.00;;;;;;5039274;28;20431;-42
2023/02/26 01:07:43;;;;;;;3.30;2.10;;;2.50;1.00;;;;;;5039751;28;20957;-41
2023/02/26 01:10:10;;;;;;;5.50;2.30;;;2.40;1.00;;;;;;5038895;28;20425;-43
2023/02/26 01:12:36;;;;;;;3.00;2.00;;;2.40;1.00;;;;;;5039867;28;20733;-41
2023/02/26 01:15:03;;;;;;;5.00;2.63;;;2.40;1.00;;;;;;5039006;28;20469;-42
2023/02/26 01:17:51;;;;;;;3.97;2.47;;;2.30;1.00;;;;;;5039120;28;20510;-41
2023/02/26 01:20:20;;;;;;;3.93;2.67;;;2.30;1.00;;;;;;5037595;28;20409;-43
2023/02/26 01:23:21;;;;;;;3.60;2.50;;;2.30;1.00;;;;;;5038209;28;20532;-41
2023/02/26 01:26:19;;;;;;;3.87;2.20;;;2.30;1.00;;;;;;5029865;28;20428;-41
2023/02/26 01:28:45;;;;;;;3.40;2.37;;;2.20;1.00;;;;;;5036879;28;20464;-41
2023/02/26 01:31:33;;;;;;;4.03;2.57;;;2.20;1.00;;;;;;5038651;28;20475;-43
2023/02/26 01:34:11;;;;;;;3.00;2.50;;;2.20;1.00;;;;;;5038410;28;20472;-42
2023/02/26 01:36:43;;;;;;;3.90;2.70;;;2.10;1.00;;;;;;5038004;28;20421;-41
2023/02/26 01:39:37;;;;;;;2.67;2.00;;;2.10;1.00;;;;;;5020509;28;20444;-43
2023/02/26 01:42:25;;;;;;;3.93;2.23;;;2.10;1.00;;;;;;5038047;28;20641;-42
2023/02/26 01:44:53;;;;;;;3.20;2.33;;;2.10;1.00;;;;;;5037242;28;20861;-41
2023/02/26 01:47:40;;;;;;;3.00;2.10;;;2.00;1.00;;;;;;5038338;28;20495;-41
2023/02/26 01:50:29;;;;;;;3.03;2.07;;;1.90;1.00;;;;;;5036328;28;20423;-41
2023/02/26 01:53:12;;;;;;;4.77;2.93;;;1.90;1.00;;;;;;5038307;28;20754;-40
2023/02/26 01:55:42;;;;;;;2.87;2.13;;;1.90;1.00;;;;;;5038009;28;20405;-41
2023/02/26 01:58:07;;;;;;;5.37;2.50;;;1.90;1.00;;;;;;5037517;28;20417;-41
2023/02/26 02:00:33;;;;;;;3.00;2.43;;;1.80;1.00;;;;;;5038208;28;20455;-40
2023/02/26 02:02:59;;;;;;;3.80;2.63;;;1.80;1.00;;;;;;5036452;28;20289;-42
2023/02/26 02:05:32;;;;;;;2.93;2.40;;;1.80;1.00;;;;;;5036593;28;20406;-41
2023/02/26 02:07:58;;;;;;;4.40;2.37;;;1.70;1.00;;;;;;5036599;28;20444;-40
2023/02/26 02:10:25;;;;;;;4.37;2.20;;;1.70;1.00;;;;;;5035148;28;20440;-40
2023/02/26 02:12:56;;;;;;;3.90;2.70;;;1.70;1.00;;;;;;5035882;28;20457;-41
2023/02/26 02:15:45;;;;;;;2.97;2.20;;;1.70;1.00;;;;;;5036257;28;20686;-42
2023/02/26 02:18:22;;;;;;;5.73;2.30;;;1.60;1.00;;;;;;5037210;28;20737;-41
2023/02/26 02:20:56;;;;;;;3.77;2.20;;;1.60;1.00;;;;;;5037368;28;20443;-42
2023/02/26 02:23:52;;;;;;;4.00;2.20;;;1.50;1.00;;;;;;5035975;28;20443;-43
2023/02/26 02:26:39;;;;;;;3.37;1.90;;;1.60;1.00;;;;;;5037099;28;20393;-41
2023/02/26 02:29:32;;;;;;;3.57;2.00;;;1.50;4.70;;;;;;5037498;28;20424;-40
2023/02/26 02:32:06;;;;;;;5.70;3.10;;;1.50;8.50;;;;;;5037816;28;20496;-41
2023/02/26 02:34:55;;;;;;;2.67;2.10;;;1.50;8.10;;;;;;5036677;28;20463;-42
2023/02/26 02:37:28;;;;;;;4.83;2.30;;;1.50;4.60;;;;;;5016419;28;20464;-43
2023/02/26 02:40:06;;;;;;;2.73;2.00;;;1.50;3.30;;;;;;5035982;28;20466;-41
2023/02/26 02:42:57;;;;;;;5.77;2.93;;;1.50;5.20;;;;;;5034931;28;20501;-43
2023/02/26 02:45:53;;;;;;;2.30;2.10;;;1.50;4.00;;;;;;5035265;28;20425;-40
2023/02/26 02:48:37;;;;;;;4.20;2.77;;;1.50;2.30;;;;;;5034787;28;20751;-42
2023/02/26 02:51:10;;;;;;;3.40;1.80;;;1.40;2.30;;;;;;5034172;28;20440;-39
2023/02/26 02:53:42;;;;;;;3.97;2.00;;;1.40;4.70;;;;;;5032538;28;20469;-41
2023/02/26 02:56:22;;;;;;;3.13;2.33;;;1.30;4.60;;;;;;5033920;28;20831;-40
2023/02/26 02:58:56;;;;;;;5.00;2.60;;;1.30;8.70;;;;;;5033801;28;20496;-39
2023/02/26 03:01:24;;;;;;;5.00;2.20;;;1.30;8.60;;;;;;5033073;28;20672;-40
2023/02/26 03:03:55;;;;;;;2.20;1.77;;;1.20;11.20;;;;;;5034304;28;20789;-42
2023/02/26 03:06:21;;;;;;;3.57;2.27;;;1.20;13.30;;;;;;5034842;28;20413;-41
2023/02/26 03:08:47;;;;;;;4.87;2.57;;;1.20;16.10;;;;;;5036339;28;20507;-41
2023/02/26 03:11:13;;;;;;;3.87;2.10;;;1.20;19.50;;;;;;5036187;28;20190;-41
2023/02/26 03:13:40;;;;;;;3.53;3.00;;;1.10;23.10;;;;;;5033897;28;20480;-41
2023/02/26 03:16:19;;;;;;;5.17;2.13;;;1.10;25.20;;;;;;5035470;28;20162;-42
2023/02/26 03:19:21;;;;;;;3.67;2.20;;;1.00;33.60;;;;;;5036187;28;20727;-41
2023/02/26 03:22:19;;;;;;;3.43;2.33;;;1.00;46.40;;;;;;4995115;28;20422;-41
2023/02/26 03:25:02;;;;;;;2.30;2.07;;;1.00;47.70;;;;;;5021896;28;20612;-42
2023/02/26 03:28:05;;;;;;;4.30;2.27;;;0.90;49.70;;;;;;5035491;28;20481;-42
2023/02/26 03:30:41;;;;;;;3.60;2.40;;;0.90;57.10;;;;;;5035696;28;20444;-40
2023/02/26 03:33:14;;;;;;;3.27;2.27;;;0.90;61.30;;;;;;5034522;28;20459;-42
2023/02/26 03:35:46;;;;;;;2.97;2.23;;;0.80;73.60;;;;;;5034249;28;20424;-41
2023/02/26 03:38:30;;;;;;;3.23;2.40;;;0.80;85.20;;;;;;5035758;28;20456;-41
2023/02/26 03:41:04;;;;;;;5.03;2.70;;;0.80;96.10;;;;;;5034748;28;20910;-41
2023/02/26 03:43:34;;;;;;;5.50;2.30;;;0.80;99.90;;;;;;5035251;28;20425;-44
2023/02/26 03:46:03;;;;;;;2.60;2.10;;;0.80;99.90;;;;;;5036879;28;20409;-43
2023/02/26 03:48:30;;;;;;;4.80;2.80;;;0.70;99.90;;;;;;5035404;28;20444;-42
2023/02/26 03:51:02;;;;;;;2.70;2.37;;;0.70;99.90;;;;;;5036210;28;20467;-41
2023/02/26 03:53:32;;;;;;;3.17;2.47;;;0.70;99.90;;;;;;5036995;28;20440;-42
2023/02/26 03:56:15;;;;;;;3.57;2.10;;;0.70;99.90;;;;;;5034996;28;20417;-42
2023/02/26 03:58:41;;;;;;;4.40;2.53;;;0.60;99.90;;;;;;5035012;28;20440;-41
2023/02/26 04:01:11;;;;;;;4.43;2.40;;;0.60;99.90;;;;;;5036528;28;20401;-43
2023/02/26 04:03:46;;;;;;;3.93;2.10;;;0.60;99.90;;;;;;5035531;28;20441;-42
2023/02/26 04:06:12;;;;;;;3.87;2.70;;;0.60;99.90;;;;;;5035383;28;20503;-42
2023/02/26 04:08:39;;;;;;;2.77;2.10;;;0.60;99.90;;;;;;5036651;28;20558;-42
2023/02/26 04:11:08;;;;;;;4.10;2.63;;;0.60;99.90;;;;;;5035161;28;20427;-41
2023/02/26 04:13:34;;;;;;;2.77;2.23;;;0.50;99.90;;;;;;5036822;28;20472;-41
2023/02/26 04:16:00;;;;;;;4.80;2.57;;;0.50;99.90;;;;;;5035758;28;20760;-41
2023/02/26 04:18:25;;;;;;;5.07;2.77;;;0.50;99.90;;;;;;5036593;28;20195;-41
2023/02/26 04:20:51;;;;;;;4.20;3.13;;;0.50;99.90;;;;;;5033788;28;20189;-42
2023/02/26 04:23:18;;;;;;;4.10;2.60;;;0.50;99.90;;;;;;5035033;28;20445;-41
2023/02/26 04:25:44;;;;;;;3.33;2.50;;;0.40;99.90;;;;;;5036325;28;20202;-41
2023/02/26 04:28:10;;;;;;;2.67;2.20;;;0.40;99.90;;;;;;5035955;28;20477;-41
2023/02/26 04:30:35;;;;;;;3.97;2.00;;;0.40;99.90;;;;;;5036300;28;20980;-40
2023/02/26 04:33:01;;;;;;;4.40;2.90;;;0.30;99.90;;;;;;5036214;28;20540;-40
2023/02/26 04:35:26;;;;;;;4.77;2.30;;;0.30;99.90;;;;;;5039274;28;20241;-43
2023/02/26 04:37:52;;;;;;;3.63;2.40;;;0.30;99.90;;;;;;5039911;28;20429;-41
2023/02/26 04:40:18;;;;;;;5.07;2.93;;;0.30;99.90;;;;;;5038666;28;20190;-42
2023/02/26 04:42:43;;;;;;;5.90;2.80;;;0.30;99.90;;;;;;5039351;28;20511;-42
2023/02/26 04:45:09;;;;;;;4.37;2.87;;;0.20;99.90;;;;;;5039497;28;20248;-40
2023/02/26 04:47:35;;;;;;;4.17;2.90;;;0.20;99.90;;;;;;5039533;28;20199;-41
2023/02/26 04:50:00;;;;;;;3.63;2.63;;;0.10;99.90;;;;;;5039768;28;20348;-42
2023/02/26 04:52:26;;;;;;;4.87;3.20;;;0.10;99.90;;;;;;5039446;28;20448;-43
2023/02/26 04:54:52;;;;;;;5.77;3.53;;;0.10;99.90;;;;;;5039701;28;20214;-42
2023/02/26 04:57:17;;;;;;;5.10;4.00;;;0.00;99.90;;;;;;5039595;28;20232;-41
2023/02/26 04:59:43;;;;;;;5.60;4.47;;;0.00;1.00;;;;;;5038970;28;20167;-41
2023/02/26 05:02:09;;;;;;;4.83;3.73;;;0.00;1.00;;;;;;5037990;28;20513;-40
2023/02/26 05:04:34;;;;;;;6.10;3.70;;;0.00;1.00;;;;;;5039063;28;20233;-40
2023/02/26 05:07:00;;;;;;;6.13;4.03;;;0.00;99.90;;;;;;5039658;28;20174;-39
2023/02/26 05:09:26;;;;;;;5.90;3.50;;;0.00;1.00;;;;;;5038444;28;20242;-40
2023/02/26 05:11:51;;;;;;;5.50;3.93;;;0.00;99.90;;;;;;5039188;28;20353;-41
2023/02/26 05:14:17;;;;;;;5.53;4.37;;;0.00;1.00;;;;;;5039186;28;20567;-40
2023/02/26 05:16:43;;;;;;;5.60;3.77;;;-0.10;1.00;;;;;;5039124;28;20582;-43
2023/02/26 05:19:08;;;;;;;5.77;3.80;;;-0.10;1.00;;;;;;5039335;28;20179;-40
2023/02/26 05:21:34;;;;;;;3.67;2.60;;;-0.10;1.00;;;;;;5039220;28;20178;-42
2023/02/26 05:23:59;;;;;;;3.33;2.67;;;-0.10;1.00;;;;;;5038928;28;20191;-42
2023/02/26 05:26:25;;;;;;;4.57;3.40;;;-0.10;1.00;;;;;;5038187;28;20202;-41
2023/02/26 05:28:51;;;;;;;8.43;3.23;;;-0.10;1.00;;;;;;5038793;28;20240;-40
2023/02/26 05:31:17;;;;;;;4.40;2.77;;;-0.10;1.00;;;;;;5038896;28;20269;-42
2023/02/26 05:33:42;;;;;;;3.70;2.93;;;-0.10;1.00;;;;;;5038816;28;20332;-42
2023/02/26 05:36:09;;;;;;;5.30;2.40;;;-0.10;1.00;;;;;;5038925;28;20561;-42
2023/02/26 05:38:34;;;;;;;3.83;2.60;;;-0.10;1.00;;;;;;5038255;28;20465;-42
2023/02/26 05:41:00;;;;;;;4.07;2.67;;;-0.10;1.00;;;;;;5037541;28;20471;-40
2023/02/26 05:43:26;;;;;;;5.30;3.20;;;-0.10;1.00;;;;;;5037378;28;20179;-39
2023/02/26 05:45:52;;;;;;;2.67;2.23;;;-0.20;1.00;;;;;;5036687;28;20178;-41
2023/02/26 05:48:18;;;;;;;5.23;2.67;;;-0.10;1.00;;;;;;5037222;28;20425;-41
2023/02/26 05:50:45;;;;;;;6.37;2.70;;;-0.10;1.00;;;;;;5038098;28;20405;-40
2023/02/26 05:53:11;;;;;;;4.63;2.70;;;-0.10;1.00;;;;;;5038079;28;20187;-40
2023/02/26 05:55:36;;;;;;;4.67;3.10;;;-0.20;1.00;;;;;;5038380;28;20476;-40
2023/02/26 05:58:02;;;;;;;6.20;3.10;;;-0.20;1.00;;;;;;5038583;28;20189;-42
2023/02/26 06:00:27;;;;;;;2.50;2.00;;;-0.20;1.00;;;;;;5037426;28;20207;-41
2023/02/26 06:02:53;;;;;;;5.47;3.03;;;-0.20;1.00;;;;;;5036370;28;20192;-41
2023/02/26 06:05:19;;;;;;;3.70;2.63;;;-0.20;1.00;;;;;;5036778;28;20539;-42
2023/02/26 06:07:45;;;;;;;3.50;2.40;;;-0.20;1.00;;;;;;5036451;28;20186;-42
2023/02/26 06:10:11;;;;;;;6.13;3.50;;;-0.20;1.00;;;;;;5037016;28;21142;-42
2023/02/26 06:12:37;;;;;;;4.10;2.40;;;-0.20;1.00;;;;;;5036456;28;20257;-42
2023/02/26 06:15:03;;;;;;;5.73;2.60;;;-0.20;1.00;;;;;;5037417;28;20465;-41
2023/02/26 06:17:29;;;;;;;3.73;2.53;;;-0.30;1.00;;;;;;5036367;28;20451;-40
2023/02/26 06:19:55;;;;;;;4.10;2.40;;;-0.30;1.00;;;;;;5034366;28;20405;-40
2023/02/26 06:22:20;;;;;;;3.93;2.20;;;-0.30;1.00;;;;;;5038205;28;20205;-43
2023/02/26 06:24:46;;;;;;;4.17;2.30;;;-0.30;1.00;;;;;;5037995;28;20178;-41
2023/02/26 06:27:12;;;;;;;3.70;2.50;;;-0.20;1.00;;;;;;5039317;28;20269;-40
2023/02/26 06:29:38;;;;;;;3.93;3.10;;;-0.20;1.00;;;;;;5037502;28;20230;-41
2023/02/26 06:32:04;;;;;;;2.93;2.60;;;-0.20;1.00;;;;;;5037133;28;20182;-41
2023/02/26 06:34:30;;;;;;;4.80;2.70;;;-0.20;1.00;;;;;;5036183;28;20464;-41
2023/02/26 06:36:56;;;;;;;4.53;3.20;;;-0.30;1.00;;;;;;5035219;28;20416;-41
2023/02/26 06:39:21;;;;;;;2.90;2.57;;;-0.30;1.00;;;;;;5036244;28;20178;-40
2023/02/26 06:41:47;;;;;;;4.17;2.70;;;-0.30;1.00;;;;;;5035960;28;20235;-40
2023/02/26 06:44:13;;;;;;;5.63;2.80;;;-0.20;1.00;;;;;;5036283;28;20248;-41
2023/02/26 06:46:38;;;;;;;5.60;3.40;;;-0.20;1.00;;;;;;5036515;28;20416;-42
2023/02/26 06:49:04;;;;;;;10.00;3.87;;;-0.20;1.00;;;;;;5037595;28;20596;-40
2023/02/26 06:51:30;;;;;;;8.47;4.00;;;-0.20;1.00;;;;;;5036958;28;20599;-39
2023/02/26 06:53:56;;;;;;;5.60;4.73;;;-0.20;1.00;;;;;;5036213;28;20481;-40
2023/02/26 06:56:22;;;;;;;5.47;4.77;;;-0.20;1.00;;;;;;5035407;28;20175;-39
2023/02/26 06:58:48;;;;;;;5.53;4.20;;;-0.10;1.00;;;;;;5035979;28;20523;-39
2023/02/26 07:01:14;;;;;;;6.20;4.30;;;0.00;1.00;;;;;;5035711;28;20483;-40
2023/02/26 07:03:39;;;;;;;6.27;3.90;;;0.00;1.00;;;;;;5036312;28;20183;-40
2023/02/26 07:06:07;;;;;;;4.40;3.07;;;0.10;1.00;;;;;;5036901;28;20561;-42
2023/02/26 07:08:34;;;;;;;3.03;2.80;;;0.10;1.00;;;;;;5036106;28;20201;-42
2023/02/26 07:10:59;;;;;;;3.70;2.67;;;0.20;1.00;;;;;;5035194;28;20420;-41
2023/02/26 07:13:25;;;;;;;7.53;3.00;;;0.30;1.00;;;;;;5035668;28;20460;-41
2023/02/26 07:15:51;;;;;;;3.83;2.90;;;0.30;1.00;;;;;;5035361;28;20174;-42
2023/02/26 07:18:16;;;;;;;4.80;3.27;;;0.40;1.00;;;;;;5035433;28;20273;-42
2023/02/26 07:20:43;;;;;;;5.07;2.90;;;0.40;1.00;;;;;;5035625;28;20200;-41
2023/02/26 07:23:09;;;;;;;4.60;2.67;;;0.50;1.00;;;;;;5035878;28;20260;-42
2023/02/26 07:25:36;;;;;;;3.83;2.93;;;0.50;1.00;;;;;;5036746;28;20810;-42
2023/02/26 07:28:02;;;;;;;7.67;2.60;;;0.60;1.00;;;;;;5036474;28;20486;-41
2023/02/26 07:30:28;;;;;;;8.33;3.70;;;0.70;1.00;;;;;;5036820;28;20406;-41
2023/02/26 07:32:54;;;;;;;3.97;2.60;;;0.90;1.00;;;;;;5036618;28;20908;-40
2023/02/26 07:35:19;;;;;;;4.60;2.57;;;1.10;1.00;;;;;;5036074;28;20206;-40
2023/02/26 07:37:45;;;;;;;3.83;2.50;;;1.30;1.00;;;;;;5036547;28;20492;-42
2023/02/26 07:40:12;;;;;;;3.27;2.17;;;1.60;1.00;;;;;;5035368;28;20247;-40
2023/02/26 07:42:39;;;;;;;2.90;2.50;;;1.80;99.90;;;;;;5033915;28;20206;-42
2023/02/26 07:45:07;;;;;;;3.30;2.90;;;2.00;99.90;;;;;;5034131;28;20574;-41
2023/02/26 07:47:33;;;;;;;7.50;2.73;;;2.20;99.90;;;;;;5034716;28;20979;-40
2023/02/26 07:49:59;;;;;;;4.37;2.83;;;2.40;99.90;;;;;;5036766;28;20428;-43
2023/02/26 07:52:25;;;;;;;5.97;3.20;;;2.60;99.90;;;;;;5034956;28;20433;-41
2023/02/26 07:54:52;;;;;;;3.60;2.23;;;2.80;99.90;;;;;;5034984;28;20276;-43
2023/02/26 07:57:18;;;;;;;3.47;2.47;;;3.10;99.90;;;;;;5035897;28;20429;-40
2023/02/26 07:59:43;;;;;;;4.13;3.23;;;3.50;99.90;;;;;;5035641;28;20488;-41
2023/02/26 08:02:10;;;;;;;2.70;2.30;;;3.90;86.40;;;;;;5035992;28;20516;-42
2023/02/26 08:04:36;;;;;;;4.20;2.73;;;4.20;23.70;;;;;;5034228;28;20194;-41
2023/02/26 08:07:02;;;;;;;3.93;2.40;;;4.40;1.00;;;;;;5035357;28;20408;-43
2023/02/26 08:09:27;;;;;;;2.50;1.73;;;4.50;1.00;;;;;;5038660;28;20244;-42
2023/02/26 08:11:53;;;;;;;4.13;2.77;;;4.60;1.00;;;;;;5038618;28;20457;-41
2023/02/26 08:14:19;;;;;;;4.60;2.20;;;4.80;1.00;;;;;;5039719;28;20209;-40
2023/02/26 08:16:44;;;;;;;3.57;2.27;;;4.90;1.00;;;;;;5037242;28;20280;-42
2023/02/26 08:19:10;;;;;;;4.53;2.33;;;5.00;1.00;;;;;;5039383;28;20529;-40
2023/02/26 08:21:36;;;;;;;2.77;1.97;;;5.00;1.00;;;;;;5039085;28;20185;-41
2023/02/26 08:24:02;;;;;;;3.43;2.50;;;5.00;1.00;;;;;;5038380;28;20197;-40
2023/02/26 08:26:27;;;;;;;3.07;2.13;;;4.90;1.00;;;;;;5036137;28;20947;-40
2023/02/26 08:28:53;;;;;;;4.47;2.47;;;4.90;1.00;;;;;;5034884;28;20454;-40
2023/02/26 08:31:19;;;;;;;2.87;2.00;;;4.80;1.00;;;;;;5035284;28;20193;-43
2023/02/26 08:33:45;;;;;;;4.60;1.90;;;4.90;1.00;;;;;;5035574;28;20202;-41
2023/02/26 08:36:11;;;;;;;2.83;1.80;;;5.10;1.00;;;;;;5033540;28;20170;-41
2023/02/26 08:38:37;;;;;;;3.80;2.70;;;5.30;1.00;;;;;;5036099;28;20429;-40
2023/02/26 08:41:02;;;;;;;6.87;2.97;;;5.50;1.00;;;;;;5034173;28;20431;-41
2023/02/26 08:43:28;;;;;;;6.13;3.43;;;5.60;1.00;;;;;;5034815;28;20451;-41
2023/02/26 08:45:55;;;;;;;4.63;2.97;;;5.60;1.00;;;;;;5036873;28;20461;-41
2023/02/26 08:48:22;;;;;;;5.03;2.60;;;5.70;1.00;;;;;;5035180;28;20872;-40
2023/02/26 08:50:48;;;;;;;3.83;2.33;;;6.00;1.00;;;;;;5035513;28;20521;-41
2023/02/26 08:53:14;;;;;;;6.40;3.73;;;6.20;1.00;;;;;;5036549;28;20413;-41
2023/02/26 08:55:40;;;;;;;5.00;2.43;;;6.10;1.00;;;;;;5037361;28;20214;-40
2023/02/26 08:58:06;;;;;;;3.97;2.30;;;6.20;1.00;;;;;;5037370;28;20497;-41
2023/02/26 09:00:32;;;;;;;2.53;2.20;;;6.20;1.00;;;;;;5036604;28;20581;-41
2023/02/26 09:02:58;;;;;;;3.77;2.50;;;6.20;1.00;;;;;;5035501;28;20448;-41
2023/02/26 09:05:24;;;;;;;4.37;2.07;;;6.10;1.00;;;;;;5036329;28;20839;-43
2023/02/26 09:07:49;;;;;;;2.70;2.00;;;6.00;1.00;;;;;;5036102;28;20417;-40
2023/02/26 09:10:15;;;;;;;2.43;2.00;;;6.00;1.00;;;;;;5036846;28;20186;-41
2023/02/26 09:12:42;;;;;;;4.43;2.50;;;5.90;1.00;;;;;;5036542;28;20190;-40
2023/02/26 09:15:09;;;;;;;5.33;3.47;;;5.90;1.00;;;;;;5036227;28;20469;-40
2023/02/26 09:17:34;;;;;;;5.83;2.77;;;5.70;1.00;;;;;;5038046;28;20792;-40
2023/02/26 09:20:00;;;;;;;4.70;2.43;;;5.70;1.00;;;;;;5037777;28;20436;-41
2023/02/26 09:22:26;;;;;;;3.80;2.27;;;5.60;1.00;;;;;;5037660;28;20181;-41
2023/02/26 09:24:51;;;;;;;4.77;1.40;;;5.50;1.00;;;;;;5036623;28;20186;-42
2023/02/26 09:27:17;;;;;;;4.50;1.60;;;6.20;1.00;;;;;;5036759;28;20488;-42
2023/02/26 09:29:43;;;;;;;2.90;1.70;;;7.20;99.90;;;;;;5035719;28;20299;-42
2023/02/26 09:32:08;;;;;;;2.43;1.60;;;7.90;99.90;;;;;;5036735;28;20189;-42
2023/02/26 09:34:35;;;;;;;4.37;1.97;;;8.60;1.00;;;;;;5035724;28;20462;-43
2023/02/26 09:37:06;;;;;;;2.47;1.60;;;9.20;1.00;;;;;;5036905;28;20174;-42
2023/02/26 09:39:31;;;;;;;4.27;1.60;;;9.70;1.00;;;;;;5035352;28;20429;-44
2023/02/26 09:42:17;;;;;;;2.27;1.23;;;10.30;99.90;;;;;;5036298;28;20432;-42
2023/02/26 09:44:43;;;;;;;3.97;1.60;;;10.80;99.90;;;;;;5015531;28;20432;-47
2023/02/26 09:47:40;;;;;;;3.90;1.70;;;11.10;99.90;;;;;;5035953;28;20524;-44
2023/02/26 09:50:23;;;;;;;2.40;1.23;;;11.50;1.00;;;;;;5036192;28;20202;-40
2023/02/26 09:52:58;;;;;;;4.60;2.13;;;11.70;1.00;;;;;;5020611;28;20464;-41
2023/02/26 09:55:34;;;;;;;4.70;2.60;;;11.60;99.90;;;;;;5037794;28;20581;-40
2023/02/26 09:58:03;;;;;;;2.67;1.87;;;10.90;1.00;;;;;;5035720;28;20409;-41
2023/02/26 10:00:41;;;;;;;2.80;2.07;;;10.20;1.00;;;;;;5036670;28;20823;-42
2023/02/26 10:03:10;;;;;;;2.53;1.50;;;9.50;1.00;;;;;;5037472;28;20427;-41
2023/02/26 10:05:40;;;;;;;3.10;1.70;;;8.90;1.00;;;;;;5039169;28;20448;-41
2023/02/26 10:08:17;;;;;;;3.10;1.70;;;8.40;1.00;;;;;;5037289;28;20539;-41
2023/02/26 10:10:59;;;;;;;3.73;1.80;;;8.00;1.00;;;;;;5038507;28;20437;-43
2023/02/26 10:13:45;;;;;;;3.20;1.90;;;7.60;1.00;;;;;;5036206;28;20877;-41
2023/02/26 10:16:22;;;;;;;2.60;1.70;;;7.30;1.00;;;;;;5035025;28;20444;-41
2023/02/26 10:18:53;;;;;;;3.80;2.37;;;7.00;1.00;;;;;;5034267;28;20432;-41
2023/02/26 10:21:28;;;;;;;1.97;1.77;;;6.80;1.00;;;;;;5036931;28;20413;-41
2023/02/26 10:23:56;;;;;;;1.60;1.40;;;6.60;1.00;;;;;;5036363;28;20472;-40
2023/02/26 10:26:39;;;;;;;2.20;1.70;;;6.40;1.00;;;;;;5035593;28;20537;-41
2023/02/26 10:29:17;;;;;;;2.80;1.83;;;6.20;1.00;;;;;;5035301;28;20497;-41
2023/02/26 10:31:59;;;;;;;4.50;2.20;;;6.00;1.00;;;;;;5033427;28;20441;-41
2023/02/26 10:34:42;;;;;;;2.03;1.70;;;5.80;1.00;;;;;;5036342;28;21131;-40
2023/02/26 10:37:16;;;;;;;2.70;1.70;;;5.60;1.00;;;;;;5034748;28;20787;-41
2023/02/26 10:39:56;;;;;;;3.37;1.90;;;5.40;1.00;;;;;;5035263;28;20405;-43
2023/02/26 10:42:27;;;;;;;1.83;1.60;;;5.30;1.00;;;;;;5033969;28;20449;-41
2023/02/26 10:45:35;;;;;;;2.53;2.33;;;5.20;1.00;;;;;;5032168;28;20464;-43
2023/02/26 10:48:14;;;;;;;1.93;1.73;;;5.10;1.00;;;;;;5032999;28;20531;-42
2023/02/26 10:50:49;;;;;;;2.47;1.80;;;5.10;1.00;;;;;;5033525;28;21005;-42
2023/02/26 10:53:14;;;;;;;2.40;1.60;;;5.10;1.00;;;;;;5033665;28;20456;-41
2023/02/26 10:55:49;;;;;;;2.37;2.07;;;5.20;1.00;;;;;;5021635;28;20520;-41
2023/02/26 10:58:17;;;;;;;3.03;1.80;;;5.30;1.00;;;;;;5014403;28;20182;-42
2023/02/26 11:00:45;;;;;;;3.30;2.00;;;5.30;1.00;;;;;;5016341;28;20433;-41
2023/02/26 11:03:17;;;;;;;3.23;2.00;;;5.40;1.00;;;;;;5016739;28;20441;-51
2023/02/26 11:05:43;;;;;;;6.80;2.20;;;5.40;1.00;;;;;;5017400;28;20486;-42
2023/02/26 11:08:17;;;;;;;3.10;1.90;;;5.40;1.00;;;;;;5015909;28;20459;-41
2023/02/26 11:11:00;;;;;;;4.27;2.20;;;5.50;1.00;;;;;;5015635;28;20347;-42
2023/02/26 11:13:29;;;;;;;2.23;1.90;;;5.50;1.00;;;;;;5016079;28;20437;-42
2023/02/26 11:15:58;;;;;;;2.93;1.80;;;5.60;1.00;;;;;;4998706;28;20488;-42
2023/02/26 11:18:35;;;;;;;3.70;2.20;;;5.80;1.00;;;;;;5013980;28;20422;-41
2023/02/26 11:21:03;;;;;;;2.13;1.50;;;6.00;1.00;;;;;;5013391;28;20428;-42
2023/02/26 11:23:30;;;;;;;2.23;1.67;;;6.20;1.00;;;;;;5013193;28;20804;-41
2023/02/26 11:26:20;;;;;;;2.10;1.80;;;6.50;1.00;;;;;;5012884;28;20501;-41
2023/02/26 11:28:48;;;;;;;2.20;1.97;;;6.70;1.00;;;;;;5003573;28;20731;-45
2023/02/26 11:31:20;;;;;;;1.97;1.33;;;6.90;1.00;;;;;;5014145;28;20426;-41
2023/02/26 11:33:56;;;;;;;3.87;1.93;;;6.80;1.00;;;;;;5012972;28;20426;-40
2023/02/26 11:36:25;;;;;;;2.77;1.80;;;6.80;1.00;;;;;;5012803;28;20417;-39
2023/02/26 11:38:54;;;;;;;2.23;1.60;;;6.70;1.00;;;;;;5011997;28;20773;-40
2023/02/26 11:41:22;;;;;;;2.80;2.00;;;6.70;1.00;;;;;;5012354;28;20426;-41
2023/02/26 11:44:04;;;;;;;3.33;2.13;;;6.70;1.00;;;;;;4995644;28;20705;-42
2023/02/26 11:46:30;;;;;;;2.70;2.33;;;6.70;1.00;;;;;;5013094;28;20820;-41
2023/02/26 11:48:57;;;;;;;2.50;1.90;;;6.70;1.00;;;;;;5012869;28;20417;-42
2023/02/26 11:51:26;;;;;;;2.30;1.70;;;6.60;1.00;;;;;;5013328;28;20441;-42
2023/02/26 11:54:00;;;;;;;3.60;1.80;;;6.40;1.00;;;;;;5013011;28;20733;-41
2023/02/26 11:56:39;;;;;;;2.30;1.63;;;6.30;1.00;;;;;;5015621;28;20698;-41
2023/02/26 11:59:26;;;;;;;1.80;1.63;;;6.10;1.00;;;;;;5016562;28;20414;-42
2023/02/26 12:01:53;;;;;;;2.73;1.60;;;6.00;1.00;;;;;;5013623;28;20461;-42
2023/02/26 12:04:21;;;;;;;2.07;1.80;;;5.90;1.00;;;;;;5013214;28;20433;-43
2023/02/26 12:06:49;;;;;;;2.17;1.97;;;5.80;1.00;;;;;;5014708;28;21022;-41
2023/02/26 12:09:15;;;;;;;2.00;1.53;;;5.80;1.00;;;;;;5013658;28;20463;-41
2023/02/26 12:11:56;;;;;;;1.73;1.63;;;5.80;1.00;;;;;;4996102;28;20434;-42
2023/02/26 12:14:24;;;;;;;2.07;1.83;;;5.80;1.00;;;;;;5014040;28;20301;-42
2023/02/26 12:17:46;;;;;;;2.73;1.90;;;5.80;1.00;;;;;;5015150;28;20438;-41
2023/02/26 12:20:27;;;;;;;2.57;1.60;;;5.80;1.00;;;;;;4973360;28;20435;-42
2023/02/26 12:23:11;;;;;;;2.10;1.67;;;5.80;1.00;;;;;;4973982;28;20416;-42
2023/02/26 12:25:43;;;;;;;3.30;1.90;;;5.70;1.00;;;;;;5002386;28;20429;-41
2023/02/26 12:28:50;;;;;;;4.00;2.57;;;5.60;1.00;;;;;;5012573;28;20423;-41
2023/02/26 12:31:23;;;;;;;2.50;1.83;;;5.50;1.00;;;;;;5007957;28;20805;-42
2023/02/26 12:34:26;;;;;;;2.27;2.00;;;5.30;1.00;;;;;;5014803;28;20426;-45
2023/02/26 12:37:14;;;;;;;2.27;2.07;;;5.20;1.00;;;;;;5013968;28;20410;-41
2023/02/26 12:40:05;;;;;;;3.57;2.10;;;5.10;1.00;;;;;;5014038;28;20438;-40
2023/02/26 12:42:50;;;;;;;2.80;1.97;;;5.20;1.00;;;;;;5013946;28;20406;-42
2023/02/26 12:45:38;;;;;;;2.80;2.13;;;5.30;1.00;;;;;;5015356;28;20422;-40
2023/02/26 12:48:35;;;;;;;4.30;1.90;;;5.40;1.00;;;;;;5015503;28;20438;-41
2023/02/26 12:51:29;;;;;;;3.40;1.73;;;5.40;1.00;;;;;;5016091;28;20506;-42
2023/02/26 12:54:33;;;;;;;2.00;1.70;;;5.30;1.00;;;;;;5011022;28;20524;-42
2023/02/26 12:57:17;;;;;;;2.30;1.73;;;5.30;1.00;;;;;;5018640;28;20419;-41
2023/02/26 12:59:48;;;;;;;2.33;1.73;;;5.30;1.00;;;;;;5019169;28;20472;-41
2023/02/26 13:02:59;;;;;;;1.70;1.60;;;5.30;1.00;;;;;;5018848;28;20670;-40
2023/02/26 13:06:02;;;;;;;1.90;1.60;;;5.30;1.00;;;;;;5008006;28;20520;-42
2023/02/26 13:08:40;;;;;;;1.33;1.20;;;5.30;1.00;;;;;;5016958;28;20421;-41
2023/02/26 13:11:08;;;;;;;2.00;1.60;;;5.50;1.00;;;;;;5017513;28;20565;-40
2023/02/26 13:13:40;;;;;;;2.30;1.60;;;5.60;1.00;;;;;;5018393;28;20827;-41
2023/02/26 13:16:22;;;;;;;1.87;1.60;;;5.70;1.00;;;;;;5019091;28;20430;-42
2023/02/26 13:18:50;;;;;;;2.23;1.67;;;5.80;1.00;;;;;;5018996;28;20465;-41
2023/02/26 13:21:28;;;;;;;2.10;1.40;;;5.80;1.00;;;;;;5018723;28;20414;-41
2023/02/26 13:23:55;;;;;;;1.90;1.13;;;5.80;1.00;;;;;;5018319;28;20432;-43
2023/02/26 13:26:21;;;;;;;1.93;1.23;;;5.80;1.00;;;;;;5016673;28;20879;-41